createdAt,value
2022-12-14T00:00:17.819Z,36.99
2022-12-14T00:02:19.362Z,36.97
2022-12-14T00:04:20.906Z,37.37
2022-12-14T00:06:24.419Z,37.16
2022-12-14T00:08:26.381Z,37.75
2022-12-14T00:10:30.010Z,37.09
2022-12-14T00:12:31.484Z,37.52
2022-12-14T00:14:33.051Z,37.37
2022-12-14T00:16:35.777Z,37.44
2022-12-14T00:18:37.359Z,37.67
2022-12-14T00:20:38.907Z,37.41
2022-12-14T00:22:40.376Z,37.83
2022-12-14T00:24:41.881Z,37.80
2022-12-14T00:26:44.745Z,37.62
2022-12-14T00:28:48.319Z,37.28
2022-12-14T00:30:58.338Z,37.48
2022-12-14T00:33:00.100Z,37.53
2022-12-14T00:35:01.624Z,37.77
2022-12-14T00:37:03.176Z,37.72
2022-12-14T00:39:04.856Z,37.76
2022-12-14T00:41:08.015Z,37.61
2022-12-14T00:43:11.132Z,37.91
2022-12-14T00:45:12.607Z,38.25
2022-12-14T00:47:14.108Z,38.06
2022-12-14T00:49:15.597Z,38.07
2022-12-14T00:51:17.324Z,38.22
2022-12-14T00:53:19.163Z,38.41
2022-12-14T00:55:20.703Z,38.01
2022-12-14T00:57:22.175Z,38.16
2022-12-14T00:59:27.363Z,38.43
2022-12-14T01:01:29.282Z,38.45
2022-12-14T01:03:31.539Z,38.28
2022-12-14T01:05:33.851Z,37.92
2022-12-14T01:07:35.425Z,37.95
2022-12-14T01:09:37.218Z,38.28
2022-12-14T01:11:39.438Z,38.32
2022-12-14T01:13:42.128Z,38.33
2022-12-14T01:15:45.111Z,38.62
2022-12-14T01:17:46.654Z,38.60
2022-12-14T01:19:48.943Z,38.07
2022-12-14T01:21:51.004Z,38.73
2022-12-14T01:23:54.403Z,38.26
2022-12-14T01:25:59.015Z,38.51
2022-12-14T01:28:00.621Z,38.15
2022-12-14T01:30:02.264Z,38.66
2022-12-14T01:32:05.700Z,38.81
2022-12-14T01:34:07.420Z,38.36
2022-12-14T01:36:11.074Z,38.48
2022-12-14T01:38:12.565Z,38.74
2022-12-14T01:40:14.062Z,38.91
2022-12-14T01:42:16.337Z,39.11
2022-12-14T01:44:53.707Z,38.95
2022-12-14T01:47:00.681Z,39.24
2022-12-14T01:49:11.771Z,39.33
2022-12-14T01:51:13.358Z,39.38
2022-12-14T01:53:20.591Z,39.41
2022-12-14T01:55:25.415Z,39.26
2022-12-14T01:57:31.550Z,40.08
2022-12-14T01:59:36.486Z,39.53
2022-12-14T02:01:38.613Z,39.43
2022-12-14T02:03:52.414Z,39.90
2022-12-14T02:06:01.082Z,39.42
2022-12-14T02:08:03.279Z,39.64
2022-12-14T02:10:06.982Z,39.99
2022-12-14T02:12:12.811Z,39.40
2022-12-14T02:14:14.278Z,39.84
2022-12-14T02:16:15.952Z,39.84
2022-12-14T02:18:20.806Z,40.22
2022-12-14T02:20:23.059Z,39.79
2022-12-14T02:22:48.955Z,39.70
2022-12-14T02:25:06.732Z,39.95
2022-12-14T02:27:20.824Z,40.27
2022-12-14T02:29:44.367Z,40.33
2022-12-14T02:31:53.918Z,39.72
2022-12-14T02:34:02.897Z,39.65
2022-12-14T02:36:13.219Z,39.70
2022-12-14T02:38:35.506Z,39.70
2022-12-14T02:40:44.822Z,39.86
2022-12-14T02:43:01.323Z,39.89
2022-12-14T02:45:11.479Z,40.13
2022-12-14T02:47:21.541Z,39.84
2022-12-14T02:49:39.763Z,40.25
2022-12-14T02:51:52.675Z,40.19
2022-12-14T02:54:01.256Z,40.50
2022-12-14T02:56:08.326Z,40.86
2022-12-14T02:58:14.967Z,41.06
2022-12-14T03:00:18.720Z,41.09
2022-12-14T03:02:20.752Z,41.31
2022-12-14T03:04:24.072Z,40.52
2022-12-14T03:06:25.947Z,40.99
2022-12-14T03:08:31.458Z,41.04
2022-12-14T03:10:39.119Z,40.99
2022-12-14T03:12:44.881Z,40.79
2022-12-14T03:14:50.365Z,40.69
2022-12-14T03:16:54.032Z,40.53
2022-12-14T03:18:58.886Z,40.75
2022-12-14T03:21:00.989Z,40.36
2022-12-14T03:23:07.429Z,40.69
2022-12-14T03:25:14.741Z,40.81
2022-12-14T03:27:23.534Z,41.90
2022-12-14T03:29:29.449Z,41.49
2022-12-14T03:31:36.543Z,41.31
2022-12-14T03:33:42.826Z,40.52
2022-12-14T03:35:49.972Z,41.20
2022-12-14T03:37:57.438Z,41.40
2022-12-14T03:39:58.963Z,41.93
2022-12-14T03:42:09.006Z,41.24
2022-12-14T03:44:22.823Z,40.51
2022-12-14T03:46:35.625Z,40.92
2022-12-14T03:48:45.039Z,40.30
2022-12-14T03:50:52.995Z,40.59
2022-12-14T03:53:02.305Z,40.48
2022-12-14T03:55:17.483Z,40.96
2022-12-14T03:57:32.634Z,41.19
2022-12-14T03:59:38.659Z,40.76
2022-12-14T04:01:45.942Z,40.91
2022-12-14T04:03:57.795Z,40.97
2022-12-14T04:06:03.671Z,41.76
2022-12-14T04:08:10.819Z,42.33
2022-12-14T04:10:14.997Z,42.91
2022-12-14T04:12:23.174Z,43.00
2022-12-14T04:14:30.498Z,42.70
2022-12-14T04:16:38.012Z,41.96
2022-12-14T04:18:42.664Z,41.78
2022-12-14T04:20:50.049Z,42.26
2022-12-14T04:22:56.433Z,42.48
2022-12-14T04:25:01.942Z,42.00
2022-12-14T04:27:09.768Z,42.19
2022-12-14T04:29:16.585Z,42.31
2022-12-14T04:31:22.688Z,42.89
2022-12-14T04:33:25.220Z,43.03
2022-12-14T04:35:33.947Z,43.24
2022-12-14T04:37:39.965Z,43.06
2022-12-14T04:39:47.171Z,43.14
2022-12-14T04:41:53.298Z,43.25
2022-12-14T04:43:57.290Z,42.84
2022-12-14T04:46:05.561Z,42.85
2022-12-14T04:48:12.913Z,43.20
2022-12-14T04:50:22.434Z,43.23
2022-12-14T04:52:29.613Z,43.52
2022-12-14T04:54:43.720Z,43.84
2022-12-14T04:56:51.146Z,43.49
2022-12-14T04:58:53.842Z,43.65
2022-12-14T05:01:15.201Z,43.68
2022-12-14T05:03:23.819Z,44.00
2022-12-14T05:05:29.198Z,44.09
2022-12-14T05:07:40.253Z,43.68
2022-12-14T05:09:54.499Z,43.80
2022-12-14T05:12:05.083Z,43.74
2022-12-14T05:14:11.877Z,44.03
2022-12-14T05:16:17.276Z,44.17
2022-12-14T05:18:19.334Z,44.04
2022-12-14T05:20:23.416Z,44.57
2022-12-14T05:22:24.898Z,44.40
2022-12-14T05:24:26.419Z,44.45
2022-12-14T05:26:30.485Z,44.88
2022-12-14T05:28:31.980Z,45.45
2022-12-14T05:30:34.454Z,44.80
2022-12-14T05:32:36.098Z,45.64
2022-12-14T05:34:37.575Z,45.71
2022-12-14T05:36:39.013Z,45.96
2022-12-14T05:38:40.500Z,46.68
2022-12-14T05:40:42.008Z,46.03
2022-12-14T05:42:47.711Z,46.91
2022-12-14T05:44:52.498Z,47.17
2022-12-14T05:46:54.004Z,47.37
2022-12-14T05:48:55.508Z,47.50
2022-12-14T05:51:04.524Z,49.04
2022-12-14T05:53:06.190Z,50.49
2022-12-14T05:55:08.976Z,50.90
2022-12-14T05:57:10.647Z,51.57
2022-12-14T05:59:13.482Z,50.97
2022-12-14T06:01:18.989Z,51.54
2022-12-14T06:03:21.268Z,51.92
2022-12-14T06:05:22.775Z,52.15
2022-12-14T06:07:27.665Z,52.23
2022-12-14T06:09:29.967Z,52.88
2022-12-14T06:11:31.399Z,53.51
2022-12-14T06:13:32.894Z,54.26
2022-12-14T06:15:35.719Z,54.99
2022-12-14T06:17:44.981Z,55.25
2022-12-14T06:19:49.557Z,55.51
2022-12-14T06:21:51.903Z,54.23
2022-12-14T06:23:54.294Z,54.26
2022-12-14T06:25:56.509Z,54.12
2022-12-14T06:27:57.997Z,55.41
2022-12-14T06:29:59.487Z,54.29
2022-12-14T06:32:02.629Z,55.60
2022-12-14T06:34:05.585Z,56.78
2022-12-14T06:36:07.539Z,57.39
2022-12-14T06:38:09.025Z,58.36
2022-12-14T06:40:11.450Z,58.18
2022-12-14T06:42:12.985Z,57.75
2022-12-14T06:44:14.509Z,58.65
2022-12-14T06:46:18.400Z,59.03
2022-12-14T06:48:21.626Z,58.57
2022-12-14T06:50:23.095Z,58.44
2022-12-14T06:52:26.915Z,58.17
2022-12-14T06:54:29.067Z,58.33
2022-12-14T06:56:30.732Z,59.07
2022-12-14T06:58:32.716Z,58.10
2022-12-14T07:00:34.174Z,58.91
2022-12-14T07:02:36.032Z,58.32
2022-12-14T07:04:41.256Z,58.50
2022-12-14T07:06:42.721Z,58.54
2022-12-14T07:08:45.034Z,58.96
2022-12-14T07:10:46.489Z,58.50
2022-12-14T07:12:47.943Z,58.58
2022-12-14T07:14:49.403Z,58.80
2022-12-14T07:16:50.872Z,57.50
2022-12-14T07:18:54.129Z,57.80
2022-12-14T07:20:58.096Z,57.12
2022-12-14T07:22:59.707Z,57.54
2022-12-14T07:25:01.333Z,57.52
2022-12-14T07:27:02.851Z,57.57
2022-12-14T07:29:04.346Z,58.50
2022-12-14T07:31:07.529Z,57.38
2022-12-14T07:33:09.103Z,56.97
2022-12-14T07:35:16.401Z,56.47
2022-12-14T07:37:19.692Z,55.87
2022-12-14T07:39:22.173Z,55.65
2022-12-14T07:41:25.782Z,55.26
2022-12-14T07:43:27.636Z,54.75
2022-12-14T07:45:30.227Z,55.04
2022-12-14T07:47:31.699Z,55.51
2022-12-14T07:49:33.187Z,54.94
2022-12-14T07:51:37.100Z,55.34
2022-12-14T07:53:40.410Z,55.51
2022-12-14T07:55:41.847Z,55.26
2022-12-14T07:57:43.512Z,55.16
2022-12-14T07:59:45.005Z,54.29
2022-12-14T08:01:46.631Z,53.92
2022-12-14T08:03:50.775Z,53.80
2022-12-14T08:05:52.261Z,54.23
2022-12-14T08:07:53.703Z,54.45
2022-12-14T08:09:56.581Z,54.72
2022-12-14T08:11:58.094Z,53.32
2022-12-14T08:14:01.010Z,54.42
2022-12-14T08:16:03.692Z,54.38
2022-12-14T08:18:05.369Z,55.29
2022-12-14T08:20:07.668Z,55.46
2022-12-14T08:22:09.196Z,55.94
2022-12-14T08:24:11.559Z,56.69
2022-12-14T08:26:14.438Z,55.90
2022-12-14T08:28:16.007Z,55.02
2022-12-14T08:30:17.692Z,55.17
2022-12-14T08:32:19.208Z,55.28
2022-12-14T08:34:20.737Z,54.57
2022-12-14T08:36:23.760Z,55.18
2022-12-14T08:38:25.495Z,54.64
2022-12-14T08:40:27.128Z,54.93
2022-12-14T08:42:29.969Z,54.59
2022-12-14T08:44:31.482Z,54.92
2022-12-14T08:46:35.138Z,54.32
2022-12-14T08:48:36.745Z,54.82
2022-12-14T08:50:38.350Z,55.09
2022-12-14T08:52:39.939Z,54.57
2022-12-14T08:54:41.456Z,54.98
2022-12-14T08:56:43.022Z,55.20
2022-12-14T08:58:46.203Z,54.75
2022-12-14T09:00:47.764Z,54.92
2022-12-14T09:02:50.264Z,55.15
2022-12-14T09:04:51.938Z,56.38
2022-12-14T09:06:53.417Z,57.24
2022-12-14T09:08:55.564Z,57.63
2022-12-14T09:10:57.346Z,58.56
2022-12-14T09:12:58.960Z,58.50
2022-12-14T09:15:01.912Z,58.67
2022-12-14T09:17:03.861Z,58.17
2022-12-14T09:19:05.376Z,58.17
2022-12-14T09:21:07.501Z,57.98
2022-12-14T09:23:09.008Z,57.75
2022-12-14T09:25:10.521Z,57.83
2022-12-14T09:27:12.051Z,57.46
2022-12-14T09:29:14.913Z,57.61
2022-12-14T09:31:20.587Z,57.84
2022-12-14T09:33:22.143Z,57.12
2022-12-14T09:35:23.647Z,56.55
2022-12-14T09:37:25.198Z,56.75
2022-12-14T09:39:26.821Z,57.24
2022-12-14T09:41:44.520Z,57.20
2022-12-14T09:43:53.342Z,56.54
2022-12-14T09:46:01.456Z,56.77
2022-12-14T09:48:12.478Z,56.96
2022-12-14T09:50:17.098Z,57.53
2022-12-14T09:52:25.908Z,56.91
2022-12-14T09:54:29.876Z,57.83
2022-12-14T09:56:32.665Z,57.35
2022-12-14T09:58:35.350Z,57.03
2022-12-14T10:00:40.350Z,56.62
2022-12-14T10:02:53.264Z,56.51
2022-12-14T10:05:09.511Z,56.26
2022-12-14T10:40:35.331Z,54.86
2022-12-14T10:42:49.484Z,55.49
2022-12-14T10:45:39.602Z,55.55
2022-12-14T10:47:29.599Z,54.72
2022-12-14T10:49:37.715Z,54.49
2022-12-14T10:51:43.676Z,54.97
2022-12-14T10:53:51.573Z,55.47
2022-12-14T10:56:00.447Z,55.39
2022-12-14T10:58:03.381Z,55.73
2022-12-14T11:00:18.479Z,55.94
2022-12-14T11:02:27.495Z,57.21
2022-12-14T11:04:33.038Z,55.79
2022-12-14T11:06:34.648Z,55.81
2022-12-14T11:08:42.980Z,55.64
2022-12-14T11:11:06.772Z,55.76
2022-12-14T11:13:17.229Z,55.30
2022-12-14T11:15:25.842Z,54.97
2022-12-14T11:17:36.647Z,55.38
2022-12-14T11:19:38.323Z,55.40
2022-12-14T11:21:39.929Z,54.67
2022-12-14T11:23:43.075Z,55.24
2022-12-14T11:25:47.278Z,54.18
2022-12-14T11:27:50.216Z,54.15
2022-12-14T11:29:51.889Z,53.88
2022-12-14T11:31:53.510Z,53.44
2022-12-14T11:33:56.931Z,53.80
2022-12-14T11:35:59.048Z,54.51
2022-12-14T11:38:00.811Z,54.01
2022-12-14T11:40:05.454Z,53.46
2022-12-14T11:42:16.050Z,53.89
2022-12-14T11:44:26.914Z,53.99
2022-12-14T11:46:44.709Z,53.92
2022-12-14T11:48:48.837Z,53.61
2022-12-14T11:50:53.170Z,54.15
2022-12-14T11:53:10.772Z,53.40
2022-12-14T11:55:14.776Z,54.71
2022-12-14T11:57:22.428Z,54.06
2022-12-14T11:59:29.864Z,55.06
2022-12-14T12:01:31.442Z,54.52
2022-12-14T12:03:37.173Z,54.02
2022-12-14T12:05:42.598Z,53.21
2022-12-14T12:07:52.449Z,53.81
2022-12-14T12:09:54.476Z,53.06
2022-12-14T12:11:56.993Z,53.18
2022-12-14T12:14:00.642Z,53.30
2022-12-14T12:16:06.398Z,52.82
2022-12-14T12:18:15.911Z,52.80
2022-12-14T12:20:32.721Z,53.49
2022-12-14T12:22:35.394Z,53.06
2022-12-14T12:25:08.354Z,53.82
2022-12-14T12:27:08.067Z,53.00
2022-12-14T12:29:16.403Z,53.24
2022-12-14T12:31:23.774Z,54.13
2022-12-14T12:33:32.172Z,53.75
2022-12-14T12:35:43.081Z,54.06
2022-12-14T12:37:48.792Z,55.06
2022-12-14T12:39:58.979Z,55.76
2022-12-14T12:42:06.615Z,55.35
2022-12-14T12:44:27.643Z,54.60
2022-12-14T12:46:35.936Z,53.62
2022-12-14T12:48:50.378Z,54.25
2022-12-14T12:50:55.570Z,54.30
2022-12-14T12:53:03.687Z,53.98
2022-12-14T12:55:14.208Z,54.08
2022-12-14T12:57:19.128Z,53.41
2022-12-14T12:59:26.750Z,53.48
2022-12-14T13:01:34.354Z,53.96
2022-12-14T13:03:39.200Z,54.34
2022-12-14T13:05:47.077Z,53.94
2022-12-14T13:07:52.855Z,54.44
2022-12-14T13:10:03.623Z,54.18
2022-12-14T13:12:14.724Z,53.96
2022-12-14T13:14:23.907Z,54.05
2022-12-14T13:16:30.908Z,54.37
2022-12-14T13:21:07.720Z,54.68
2022-12-14T13:23:36.461Z,54.33
2022-12-14T13:25:45.039Z,55.33
2022-12-14T13:28:08.711Z,54.77
2022-12-14T13:30:30.180Z,55.26
2022-12-14T13:32:47.000Z,55.11
2022-12-14T13:35:00.457Z,55.11
2022-12-14T13:37:27.130Z,55.14
2022-12-14T13:39:51.604Z,54.69
2022-12-14T13:42:01.052Z,55.60
2022-12-14T13:44:36.096Z,55.04
2022-12-14T13:46:42.159Z,55.68
2022-12-14T13:48:49.127Z,55.20
2022-12-14T13:51:01.930Z,55.32
2022-12-14T13:53:11.317Z,55.09
2022-12-14T13:55:26.879Z,54.88
2022-12-14T13:57:28.984Z,55.35
2022-12-14T13:59:34.181Z,55.09
2022-12-14T14:01:54.707Z,55.91
2022-12-14T14:04:16.670Z,55.28
2022-12-14T14:06:30.435Z,55.60
2022-12-14T14:08:39.332Z,55.05
2022-12-14T14:10:43.200Z,55.07
2022-12-14T14:12:44.808Z,55.72
2022-12-14T14:14:52.367Z,55.23
2022-12-14T14:16:57.588Z,55.00
2022-12-14T14:19:03.888Z,54.84
2022-12-14T14:21:31.049Z,54.84
2022-12-14T14:23:36.586Z,54.57
2022-12-14T14:25:40.091Z,54.87
2022-12-14T14:27:50.250Z,54.88
2022-12-14T14:29:53.004Z,55.38
2022-12-14T14:31:58.417Z,55.49
2022-12-14T14:34:00.572Z,55.18
2022-12-14T14:36:09.368Z,54.82
2022-12-14T14:38:25.629Z,54.59
2022-12-14T14:40:51.450Z,54.80
2022-12-14T14:42:59.239Z,54.68
2022-12-14T14:45:04.426Z,55.46
2022-12-14T14:47:15.568Z,55.29
2022-12-14T14:49:24.268Z,55.83
2022-12-14T14:51:28.077Z,55.66
2022-12-14T14:53:33.203Z,55.43
2022-12-14T14:56:00.296Z,55.47
2022-12-14T14:58:05.476Z,55.49
2022-12-14T15:00:11.512Z,55.17
2022-12-14T15:02:40.711Z,54.92
2022-12-14T15:04:46.085Z,54.40
2022-12-14T15:06:51.328Z,54.36
2022-12-14T15:08:58.467Z,54.86
2022-12-14T15:11:03.545Z,54.96
2022-12-14T15:13:08.656Z,55.19
2022-12-14T15:15:18.131Z,55.13
2022-12-14T15:17:22.225Z,54.78
2022-12-14T15:19:29.415Z,55.04
2022-12-14T15:21:32.369Z,54.96
2022-12-14T15:23:36.987Z,55.25
2022-12-14T15:25:40.934Z,55.27
2022-12-14T15:27:49.984Z,55.04
2022-12-14T15:29:52.494Z,55.42
2022-12-14T15:31:59.501Z,54.78
2022-12-14T15:34:03.054Z,54.82
2022-12-14T15:36:08.154Z,55.01
2022-12-14T15:38:25.516Z,54.53
2022-12-14T15:40:28.524Z,54.51
2022-12-14T15:42:31.525Z,54.92
2022-12-14T15:44:33.337Z,54.97
2022-12-14T15:46:36.114Z,54.63
2022-12-14T15:48:37.885Z,54.57
2022-12-14T15:50:43.918Z,54.93
2022-12-14T15:52:46.872Z,54.47
2022-12-14T15:54:48.381Z,54.02
2022-12-14T15:56:53.420Z,53.98
2022-12-14T15:58:58.811Z,54.22
2022-12-14T16:01:09.107Z,54.83
2022-12-14T16:03:19.374Z,54.54
2022-12-14T16:05:22.400Z,54.20
2022-12-14T16:07:30.137Z,54.22
2022-12-14T16:09:35.387Z,54.91
2022-12-14T16:11:41.826Z,54.39
2022-12-14T16:13:47.871Z,54.03
2022-12-14T16:15:52.059Z,53.82
2022-12-14T16:18:01.662Z,54.19
2022-12-14T16:20:19.116Z,53.79
2022-12-14T16:22:23.102Z,53.87
2022-12-14T16:24:25.415Z,54.52
2022-12-14T16:26:31.879Z,54.29
2022-12-14T16:28:35.575Z,53.80
2022-12-14T16:30:37.420Z,54.17
2022-12-14T16:32:40.308Z,53.98
2022-12-14T16:34:47.895Z,53.52
2022-12-14T16:37:08.461Z,53.52
2022-12-14T16:39:17.089Z,53.69
2022-12-14T16:41:18.812Z,53.90
2022-12-14T16:43:32.949Z,53.78
2022-12-14T16:46:07.486Z,53.52
2022-12-14T16:48:15.584Z,53.04
2022-12-14T16:50:47.599Z,53.50
2022-12-14T16:52:45.070Z,53.31
2022-12-14T16:55:07.286Z,53.08
2022-12-14T16:57:19.680Z,53.39
2022-12-14T16:59:23.315Z,53.17
2022-12-14T17:01:25.949Z,53.59
2022-12-14T17:03:30.354Z,53.39
2022-12-14T17:05:35.844Z,53.41
2022-12-14T17:07:37.605Z,53.65
2022-12-14T17:09:39.152Z,53.42
2022-12-14T17:11:40.700Z,53.13
2022-12-14T17:13:42.226Z,52.95
2022-12-14T17:15:56.871Z,53.57
2022-12-14T17:18:01.341Z,53.31
2022-12-14T17:20:10.499Z,53.26
2022-12-14T17:22:19.677Z,53.44
2022-12-14T17:24:22.099Z,53.29
2022-12-14T17:26:26.011Z,53.81
2022-12-14T17:28:29.941Z,53.49
2022-12-14T17:30:31.447Z,53.48
2022-12-14T17:32:34.434Z,53.51
2022-12-14T17:34:35.918Z,53.31
2022-12-14T17:36:38.896Z,53.62
2022-12-14T17:38:40.716Z,53.23
2022-12-14T17:40:43.885Z,53.33
2022-12-14T17:42:51.271Z,53.15
2022-12-14T17:44:56.435Z,53.29
2022-12-14T17:46:58.044Z,53.16
2022-12-14T17:49:06.008Z,53.57
2022-12-14T17:51:14.781Z,53.44
2022-12-14T17:53:24.541Z,53.26
2022-12-14T17:55:28.226Z,53.26
2022-12-14T17:57:29.733Z,53.44
2022-12-14T17:59:31.407Z,53.46
2022-12-14T18:01:33.109Z,53.26
2022-12-14T18:03:35.471Z,53.35
2022-12-14T18:05:42.145Z,53.65
2022-12-14T18:07:46.763Z,53.51
2022-12-14T18:09:52.920Z,53.75
2022-12-14T18:12:22.262Z,53.95
2022-12-14T18:14:15.964Z,54.05
2022-12-14T18:16:19.779Z,54.09
2022-12-14T18:18:23.077Z,53.97
2022-12-14T18:20:24.850Z,54.33
2022-12-14T18:22:26.391Z,54.08
2022-12-14T18:24:27.908Z,54.36
2022-12-14T18:26:30.832Z,54.24
2022-12-14T18:28:32.507Z,53.79
2022-12-14T18:30:41.788Z,54.11
2022-12-14T18:32:44.890Z,54.43
2022-12-14T18:34:46.374Z,54.57
2022-12-14T18:36:47.840Z,54.64
2022-12-14T18:38:49.823Z,54.81
2022-12-14T18:40:53.976Z,54.46
2022-12-14T18:42:57.434Z,54.32
2022-12-14T18:44:58.949Z,53.96
2022-12-14T18:47:20.336Z,53.60
2022-12-14T18:49:21.968Z,53.77
2022-12-14T18:51:24.144Z,53.62
2022-12-14T18:53:26.137Z,53.60
2022-12-14T18:55:30.384Z,53.81
2022-12-14T18:57:32.021Z,53.65
2022-12-14T18:59:40.622Z,53.42
2022-12-14T19:01:43.865Z,53.22
2022-12-14T19:03:45.771Z,53.25
2022-12-14T19:05:47.682Z,53.19
2022-12-14T19:07:49.725Z,53.50
2022-12-14T19:09:51.416Z,53.27
2022-12-14T19:11:52.939Z,53.51
2022-12-14T19:13:54.448Z,53.02
2022-12-14T19:15:57.287Z,53.18
2022-12-14T19:17:59.130Z,53.14
2022-12-14T19:20:00.679Z,53.21
2022-12-14T19:22:02.211Z,53.03
2022-12-14T19:24:04.106Z,53.09
2022-12-14T19:26:05.829Z,53.43
2022-12-14T19:30:28.872Z,53.46
2022-12-14T19:32:31.850Z,53.49
2022-12-14T19:34:33.527Z,53.29
2022-12-14T19:36:35.168Z,52.98
2022-12-14T19:38:37.294Z,53.09
2022-12-14T19:40:39.015Z,53.43
2022-12-14T19:42:40.715Z,53.16
2022-12-14T19:44:42.479Z,53.54
2022-12-14T19:46:44.029Z,53.47
2022-12-14T19:48:46.977Z,53.57
2022-12-14T19:50:49.366Z,53.77
2022-12-14T19:52:51.478Z,53.53
2022-12-14T19:54:53.051Z,52.98
2022-12-14T19:56:54.604Z,53.18
2022-12-14T19:58:58.818Z,53.11
2022-12-14T20:01:00.350Z,53.25
2022-12-14T20:03:02.068Z,53.46
2022-12-14T20:05:06.244Z,52.95
2022-12-14T20:07:08.941Z,52.90
2022-12-14T20:09:14.179Z,53.17
2022-12-14T20:11:15.695Z,53.04
2022-12-14T20:13:17.239Z,53.31
2022-12-14T20:15:18.786Z,53.17
2022-12-14T20:17:20.291Z,53.60
2022-12-14T20:19:22.015Z,53.58
2022-12-14T20:21:24.960Z,53.81
2022-12-14T20:23:26.498Z,54.16
2022-12-14T20:25:28.020Z,54.08
2022-12-14T20:27:29.552Z,53.62
2022-12-14T20:29:30.998Z,53.32
2022-12-14T20:31:33.079Z,53.72
2022-12-14T20:33:35.356Z,53.55
2022-12-14T20:35:37.135Z,53.60
2022-12-14T20:37:40.000Z,53.76
2022-12-14T20:39:41.465Z,53.92
2022-12-14T20:41:43.014Z,54.36
2022-12-14T20:43:45.211Z,54.33
2022-12-14T20:45:46.716Z,53.51
2022-12-14T20:47:51.792Z,54.12
2022-12-14T20:49:53.314Z,54.32
2022-12-14T20:51:54.956Z,53.94
2022-12-14T20:53:58.405Z,53.92
2022-12-14T20:56:03.227Z,54.14
2022-12-14T20:58:04.869Z,54.06
2022-12-14T21:00:07.599Z,54.37
2022-12-14T21:02:16.089Z,54.36
2022-12-14T21:04:17.617Z,54.95
2022-12-14T21:06:21.446Z,55.11
2022-12-14T21:08:23.044Z,55.62
2022-12-14T21:10:26.021Z,55.54
2022-12-14T21:12:27.550Z,55.41
2022-12-14T21:14:31.139Z,55.04
2022-12-14T21:16:32.768Z,55.20
2022-12-14T21:18:34.259Z,55.46
2022-12-14T21:20:36.454Z,56.07
2022-12-14T21:22:37.963Z,55.95
2022-12-14T21:27:02.544Z,55.60
2022-12-14T21:29:04.680Z,55.58
2022-12-14T21:31:07.846Z,55.29
2022-12-14T21:33:09.467Z,55.27
2022-12-14T21:35:11.033Z,55.25
2022-12-14T21:37:12.821Z,55.01
2022-12-14T21:39:16.002Z,54.74
2022-12-14T21:41:17.404Z,54.65
2022-12-14T21:43:20.296Z,54.22
2022-12-14T21:45:21.790Z,54.11
2022-12-14T21:47:25.775Z,54.24
2022-12-14T21:49:27.298Z,54.25
2022-12-14T21:51:28.826Z,53.84
2022-12-14T21:53:35.002Z,53.82
2022-12-14T21:55:36.946Z,53.53
2022-12-14T21:57:38.507Z,53.34
2022-12-14T21:59:42.722Z,53.30
2022-12-14T22:01:44.802Z,53.65
2022-12-14T22:03:46.496Z,53.37
2022-12-14T22:05:51.019Z,53.24
2022-12-14T22:07:52.491Z,53.06
2022-12-14T22:09:53.999Z,54.06
2022-12-14T22:11:55.474Z,54.06
2022-12-14T22:13:56.929Z,54.23
2022-12-14T22:16:04.500Z,54.18
2022-12-14T22:18:06.279Z,55.05
2022-12-14T22:20:08.823Z,54.82
2022-12-14T22:22:13.706Z,55.26
2022-12-14T22:24:15.798Z,55.86
2022-12-14T22:26:17.496Z,56.70
2022-12-14T22:28:18.994Z,57.18
2022-12-14T22:30:20.466Z,56.37
2022-12-14T22:32:23.308Z,56.38
2022-12-14T22:34:24.798Z,56.02
2022-12-14T22:36:26.299Z,56.85
2022-12-14T22:38:31.731Z,56.59
2022-12-14T22:40:34.201Z,57.00
2022-12-14T22:42:35.750Z,57.43
2022-12-14T22:44:37.303Z,57.61
2022-12-14T22:46:39.476Z,57.20
2022-12-14T22:48:42.302Z,56.94
2022-12-14T22:50:44.008Z,57.40
2022-12-14T22:52:49.862Z,56.99
2022-12-14T22:54:51.835Z,57.04
2022-12-14T22:56:57.779Z,56.88
2022-12-14T22:59:04.847Z,57.16
2022-12-14T23:01:07.086Z,57.81
2022-12-14T23:03:09.723Z,57.25
2022-12-14T23:05:13.130Z,56.97
2022-12-14T23:07:15.011Z,56.71
2022-12-14T23:09:16.599Z,56.65
2022-12-14T23:11:18.124Z,56.24
2022-12-14T23:13:19.620Z,56.09
2022-12-14T23:15:21.097Z,55.83
2022-12-14T23:17:22.922Z,56.01
2022-12-14T23:19:24.412Z,57.46
2022-12-14T23:21:27.225Z,56.57
2022-12-14T23:23:29.265Z,56.54
2022-12-14T23:25:33.243Z,56.35
2022-12-14T23:27:34.715Z,56.30
2022-12-14T23:29:36.310Z,56.08
2022-12-14T23:31:37.806Z,55.72
2022-12-14T23:33:39.291Z,55.08
2022-12-14T23:35:40.776Z,55.53
2022-12-14T23:37:43.604Z,55.30
2022-12-14T23:39:45.147Z,55.22
2022-12-14T23:41:46.639Z,55.01
2022-12-14T23:43:48.136Z,54.34
2022-12-14T23:45:49.710Z,54.40
2022-12-14T23:47:51.229Z,54.09
2022-12-14T23:49:54.477Z,54.27
2022-12-14T23:51:55.963Z,54.58
2022-12-14T23:53:58.912Z,54.18
2022-12-14T23:56:00.470Z,53.96
2022-12-14T23:58:01.960Z,53.97
